N9OKI Weather Reports


Display with metric or nautical units.
time (UTC)temp
F
wind
direction
speed
MPH
gust
MPH
rain 1hr
in
rain 24hr
in
rain mn
in
humidity
%
barometer
mb
20220707113038 77 54 0.0 3.0 0.00 0.25 0.00 88 1013.6
20220707111533 76 140 0.0 4.0 0.00 0.25 0.00 88 1013.7
20220707110030 76 135 0.0 4.0 0.00 0.25 0.00 88 1013.5
20220707104527 77 63 1.0 4.0 0.00 0.25 0.00 89 1013.3
20220707103025 77 38 1.0 5.0 0.00 0.25 0.00 88 1013.2
20220707101522 77 29 2.0 6.0 0.00 0.25 0.00 88 1013.0
20220707100027 77 11 0.0 2.0 0.00 0.25 0.00 88 1012.8
20220707094520 77 360 0.0 3.0 0.00 0.25 0.00 88 1012.7
20220707093023 77 360 0.0 2.0 0.00 0.25 0.00 88 1012.6
20220707091517 77 19 0.0 4.0 0.00 0.25 0.00 88 1012.6
20220707090017 77 51 0.0 0.0 0.00 0.25 0.00 88 1012.5
20220707084515 77 52 0.0 2.0 0.00 0.25 0.00 88 1012.6
20220707083014 77 70 0.0 0.0 0.00 0.25 0.00 88 1012.4
20220707081512 78 70 0.0 0.0 0.00 0.25 0.00 87 1012.3
20220707080012 78 70 0.0 0.0 0.00 0.25 0.00 87 1012.2
20220707074510 78 70 0.0 0.0 0.00 0.25 0.00 87 1012.0
20220707073017 78 70 0.0 0.0 0.00 0.25 0.00 87 1012.0
20220707071510 78 70 0.0 0.0 0.00 0.25 0.00 87 1012.0
20220707070014 78 70 0.0 0.0 0.00 0.25 0.00 87 1012.0
20220707064507 78 70 0.0 0.0 0.00 0.25 0.00 87 1012.0
20220707063006 78 70 0.0 0.0 0.00 0.25 0.00 87 1012.0
20220707061505 78 70 0.0 0.0 0.00 0.25 0.00 87 1012.1
20220707060006 79 70 0.0 0.0 0.00 0.25 0.00 86 1012.1
20220707054502 79 70 0.0 2.0 0.00 0.25 0.00 86 1012.2
20220707053001 79 37 0.0 0.0 0.00 0.25 0.00 86 1012.2
20220707051606 79 37 0.0 0.0 0.00 0.25 0.00 86 1012.3
20220707050100 79 37 0.0 0.0 0.00 0.25 0.00 86 1012.2
20220707044605 79 37 1.0 5.0 0.00 0.25 0.00 86 1012.2
20220707043058 79 119 0.0 0.0 0.00 0.25 0.00 86 1012.2
20220707041557 79 119 0.0 0.0 0.00 0.25 0.00 86 1012.2
20220707040101 79 119 0.0 0.0 0.00 0.25 0.00 86 1012.2
20220707034552 79 119 0.0 1.0 0.00 0.25 0.25 86 1012.4
20220707033051 79 119 1.0 3.0 0.00 0.25 0.25 85 1012.5
20220707031551 79 111 0.0 2.0 0.00 0.25 0.25 84 1012.4
20220707030049 79 110 0.0 0.0 0.00 0.25 0.25 83 1012.3
20220707024546 80 111 0.0 0.0 0.00 0.25 0.25 83 1012.1
20220707023045 80 110 0.0 0.0 0.00 0.25 0.25 82 1012.0
20220707021546 80 111 0.0 0.0 0.00 0.25 0.25 81 1011.9
20220707020049 80 110 0.0 0.0 0.00 0.25 0.25 80 1011.8
20220707014544 81 111 0.0 0.0 0.00 0.25 0.25 79 1011.7
20220707013044 81 110 0.0 0.0 0.00 0.25 0.25 79 1011.7
20220707011544 81 111 0.0 2.0 0.00 0.25 0.25 79 1011.7
20220707010042 81 111 1.0 2.0 0.00 0.25 0.25 78 1011.5
20220707004554 81 111 0.0 2.0 0.00 0.25 0.25 77 1011.4
20220707003042 81 111 1.0 3.0 0.00 0.25 0.25 78 1011.3
20220707001541 81 152 2.0 6.0 0.00 0.25 0.25 78 1011.3
20220707000040 82 177 2.0 4.0 0.00 0.25 0.25 79 1011.0
20220706234539 82 156 0.0 3.0 0.00 0.25 0.25 80 1010.7
20220706233040 82 192 0.0 2.0 0.00 0.25 0.25 81 1010.8
20220706231539 82 192 0.0 3.0 0.00 0.25 0.25 80 1010.9
20220706230039 82 164 1.0 3.0 0.00 0.25 0.25 77 1010.8
20220706224537 82 169 0.0 2.0 0.00 0.25 0.25 78 1011.0
20220706223037 82 140 1.0 3.0 0.00 0.25 0.25 77 1011.2
20220706221537 82 130 1.0 3.0 0.00 0.25 0.25 79 1011.3
20220706220040 82 107 1.0 3.0 0.00 0.25 0.25 81 1011.5
20220706214535 81 174 1.0 3.0 0.00 0.25 0.25 81 1011.2
20220706213036 80 159 0.0 1.0 0.00 0.25 0.25 83 1010.9
20220706211543 80 159 0.0 0.0 0.00 0.25 0.25 85 1011.1
20220706210030 79 159 0.0 0.0 0.00 0.25 0.25 85 1011.1
20220706204530 79 159 0.0 3.0 0.00 0.25 0.25 84 1010.9
20220706203031 79 159 0.0 2.0 0.00 0.25 0.25 83 1011.2
20220706201530 79 158 0.0 2.0 0.01 0.25 0.25 82 1011.3
20220706200029 78 159 1.0 7.0 0.16 0.25 0.25 81 1011.9
20220706194528 79 250 1.0 3.0 0.25 0.25 0.25 82 1011.7
20220706193028 78 121 0.0 6.0 0.25 0.25 0.25 78 1010.7
20220706191528 80 213 2.0 11.0 0.23 0.23 0.23 72 1011.5
20220706190040 92 212 9.0 22.0 0.09 0.09 0.09 54 1011.3
20220706184532 95 225 4.0 9.0 0.00 0.00 0.00 51 1009.3
20220706183022 98 248 5.0 10.0 0.00 0.00 0.00 44 1010.0
20220706181519 98 240 3.0 12.0 0.00 0.00 0.00 49 1010.0
20220706180018 97 206 3.0 11.0 0.00 0.00 0.00 51 1010.2
20220706174517 96 231 1.0 9.0 0.00 0.00 0.00 50 1010.3
20220706173015 95 221 3.0 11.0 0.00 0.00 0.00 52 1010.7
20220706171514 96 180 6.0 14.0 0.00 0.00 0.00 50 1010.9
20220706170014 97 251 4.0 8.0 0.00 0.00 0.00 50 1010.9
20220706164510 95 190 3.0 9.0 0.00 0.00 0.00 54 1011.0
20220706163007 94 285 5.0 15.0 0.00 0.00 0.00 55 1011.3
20220706161504 93 201 2.0 8.0 0.00 0.00 0.00 57 1011.3
20220706160010 92 186 5.0 11.0 0.00 0.00 0.00 58 1011.5
20220706154505 93 275 2.0 12.0 0.00 0.00 0.00 59 1011.7
20220706153059 92 219 3.0 10.0 0.00 0.00 0.00 60 1011.8
20220706151555 90 196 3.0 9.0 0.00 0.00 0.00 64 1011.8
20220706150057 90 315 3.0 8.0 0.00 0.00 0.00 63 1011.7
20220706144548 89 219 2.0 7.0 0.00 0.00 0.00 64 1011.7
20220706143046 89 208 4.0 10.0 0.00 0.00 0.00 65 1011.7
20220706141542 88 277 3.0 9.0 0.00 0.00 0.00 66 1011.8
20220706140040 87 313 2.0 8.0 0.00 0.00 0.00 68 1011.9
20220706134536 86 267 3.0 7.0 0.00 0.00 0.00 71 1012.0
20220706133034 85 213 2.0 6.0 0.00 0.00 0.00 73 1012.0
20220706131533 84 259 1.0 6.0 0.00 0.00 0.00 76 1011.9
20220706130032 83 190 2.0 5.0 0.00 0.00 0.00 78 1011.8
20220706124528 82 173 1.0 5.0 0.00 0.00 0.00 81 1012.1
20220706123024 81 205 2.0 4.0 0.00 0.00 0.00 82 1011.9
20220706121521 80 160 2.0 5.0 0.00 0.00 0.00 83 1011.8
20220706120017 80 76 0.0 2.0 0.00 0.00 0.00 84 1011.8
20220706114515 79 190 0.0 4.0 0.00 0.00 0.00 84 1011.6